Hudson, Kentucky
Current Conditions -  °F | °C
As of 2:58 AM on Wednesday 28 Jan 2015 (Local Time) from KFTK Reporting Station
Clear Clear  
Wind Chill: 15°   Ceiling: Unl
Heat Index: 21°   Visibility: 10mi
Dew Point: 14°   Wind: 5mph
Humidity: 74%   Direction: 50°NE
Pressure: 30.27"   Gusts: NA
Location:  37.65°N, 86.28°W
Report Text: KFTK 280858Z AUTO 05004KT 10SM CLR M06/M10 A3027 RMK AO2 SLP263 T10611100 50011
Loading
Personal Weather Stations






























Interactive Weather Map New forecast layout! Learn more

10-Day Weather Forecast

Advertisements
Track Severe Weather on mobile